createdAt,value
2022-09-15T00:01:18.371Z,14.60
2022-09-15T00:03:51.223Z,14.10
2022-09-15T00:06:22.807Z,14.30
2022-09-15T00:08:54.614Z,13.00
2022-09-15T00:11:27.741Z,14.00
2022-09-15T00:14:00.899Z,14.30
2022-09-15T00:16:33.595Z,15.10
2022-09-15T00:19:05.787Z,14.80
2022-09-15T00:21:39.870Z,13.80
2022-09-15T00:24:11.474Z,13.30
2022-09-15T00:26:43.079Z,13.90
2022-09-15T00:29:15.456Z,14.80
2022-09-15T00:31:46.995Z,14.60
2022-09-15T00:34:18.461Z,14.30
2022-09-15T00:36:50.124Z,15.00
2022-09-15T00:39:21.728Z,13.80
2022-09-15T00:41:53.236Z,13.50
2022-09-15T00:44:53.672Z,14.80
2022-09-15T00:47:28.321Z,15.40
2022-09-15T00:50:04.205Z,13.80
2022-09-15T00:52:41.043Z,13.30
2022-09-15T00:55:17.724Z,14.00
2022-09-15T00:57:53.468Z,13.70
2022-09-15T01:00:27.615Z,15.10
2022-09-15T01:03:00.047Z,14.90
2022-09-15T01:05:37.314Z,15.50
2022-09-15T01:08:12.532Z,14.60
2022-09-15T01:10:46.586Z,14.50
2022-09-15T01:13:18.091Z,16.40
2022-09-15T01:16:01.602Z,16.00
2022-09-15T01:18:41.738Z,17.30
2022-09-15T01:21:24.567Z,15.90
2022-09-15T01:24:43.994Z,14.90
2022-09-15T01:27:52.823Z,13.80
2022-09-15T01:30:24.734Z,15.90
2022-09-15T01:33:23.227Z,15.90
2022-09-15T01:36:04.360Z,14.90
2022-09-15T01:38:45.037Z,14.70
2022-09-15T01:41:19.609Z,14.70
2022-09-15T01:43:56.780Z,14.00
2022-09-15T01:46:31.554Z,14.60
2022-09-15T01:49:04.983Z,15.80
2022-09-15T01:51:37.695Z,13.60
2022-09-15T01:54:12.268Z,15.10
2022-09-15T01:56:45.233Z,14.20
2022-09-15T01:59:17.123Z,14.50
2022-09-15T02:01:52.793Z,19.80
2022-09-15T02:04:31.588Z,15.80
2022-09-15T02:07:11.957Z,14.70
2022-09-15T02:09:52.138Z,15.00
2022-09-15T02:12:34.273Z,14.50
2022-09-15T02:15:10.709Z,15.70
2022-09-15T02:17:47.229Z,15.00
2022-09-15T02:20:23.690Z,16.00
2022-09-15T02:23:01.874Z,14.50
2022-09-15T02:25:39.379Z,15.00
2022-09-15T02:28:15.067Z,16.90
2022-09-15T02:30:48.525Z,17.80
2022-09-15T02:33:24.549Z,17.40
2022-09-15T02:35:56.754Z,15.80
2022-09-15T02:38:31.521Z,15.00
2022-09-15T02:41:03.740Z,13.90
2022-09-15T02:43:35.327Z,15.20
2022-09-15T02:46:07.165Z,19.70
2022-09-15T02:48:39.362Z,17.00
2022-09-15T02:51:11.111Z,16.60
2022-09-15T02:53:44.555Z,15.20
2022-09-15T02:56:18.236Z,16.50
2022-09-15T02:58:49.808Z,17.00
2022-09-15T03:01:21.515Z,18.60
2022-09-15T03:03:53.187Z,19.50
2022-09-15T03:06:27.912Z,15.80
2022-09-15T03:09:00.285Z,16.80
2022-09-15T03:11:32.681Z,20.60
2022-09-15T03:14:06.751Z,17.60
2022-09-15T03:16:38.411Z,18.80
2022-09-15T03:19:10.010Z,23.20
2022-09-15T03:21:41.554Z,20.70
2022-09-15T03:24:15.310Z,18.70
2022-09-15T03:26:46.907Z,12.90
2022-09-15T03:29:18.432Z,9.00
2022-09-15T03:31:50.054Z,8.50
2022-09-15T03:34:21.886Z,8.00
2022-09-15T03:36:53.477Z,6.40
2022-09-15T03:39:25.025Z,7.60
2022-09-15T03:41:56.693Z,8.80
2022-09-15T03:44:28.329Z,7.00
2022-09-15T03:46:59.920Z,7.30
2022-09-15T03:49:31.619Z,6.20
2022-09-15T03:52:04.879Z,9.00
2022-09-15T03:54:36.461Z,8.30
2022-09-15T03:57:08.174Z,6.70
2022-09-15T03:59:39.685Z,7.30
2022-09-15T04:02:11.328Z,6.60
2022-09-15T04:04:43.124Z,6.80
2022-09-15T04:07:14.711Z,8.60
2022-09-15T04:09:46.427Z,6.50
2022-09-15T04:12:18.180Z,7.20
2022-09-15T04:14:49.800Z,5.90
2022-09-15T04:17:22.074Z,5.10
2022-09-15T04:19:53.572Z,6.20
2022-09-15T04:22:25.284Z,5.30
2022-09-15T04:24:56.775Z,4.30
2022-09-15T04:27:28.983Z,4.50
2022-09-15T04:30:00.546Z,8.40
2022-09-15T04:32:32.450Z,8.90
2022-09-15T04:35:04.824Z,6.80
2022-09-15T04:37:36.374Z,9.90
2022-09-15T04:40:12.095Z,7.10
2022-09-15T04:42:43.681Z,6.00
2022-09-15T04:45:15.192Z,4.50
2022-09-15T04:47:48.436Z,5.80
2022-09-15T04:50:20.025Z,6.30
2022-09-15T04:52:52.117Z,5.60
2022-09-15T04:55:23.716Z,4.90
2022-09-15T04:57:56.312Z,5.10
2022-09-15T05:00:27.846Z,7.70
2022-09-15T05:03:00.861Z,5.70
2022-09-15T05:05:34.661Z,6.40
2022-09-15T05:08:06.780Z,5.20
2022-09-15T05:10:39.142Z,4.60
2022-09-15T05:13:10.630Z,4.90
2022-09-15T05:15:42.151Z,5.50
2022-09-15T05:18:13.903Z,4.80
2022-09-15T05:20:45.329Z,5.10
2022-09-15T05:23:16.782Z,4.60
2022-09-15T05:25:56.972Z,5.20
2022-09-15T05:28:29.257Z,5.50
2022-09-15T05:31:00.782Z,10.30
2022-09-15T05:33:32.528Z,5.80
2022-09-15T05:36:05.047Z,3.40
2022-09-15T05:38:38.765Z,3.90
2022-09-15T05:41:11.606Z,3.30
2022-09-15T05:43:43.043Z,2.50
2022-09-15T05:48:45.811Z,5.60
2022-09-15T05:51:17.324Z,4.70
2022-09-15T05:53:48.969Z,5.20
2022-09-15T05:56:20.965Z,3.20
2022-09-15T05:58:52.549Z,3.00
2022-09-15T06:01:26.647Z,2.90
2022-09-15T06:03:59.406Z,4.20
2022-09-15T06:06:33.380Z,3.20
2022-09-15T06:09:07.736Z,3.00
2022-09-15T06:11:42.757Z,4.00
2022-09-15T06:14:17.119Z,5.30
2022-09-15T06:16:50.327Z,3.80
2022-09-15T06:19:22.772Z,3.30
2022-09-15T06:21:55.311Z,3.50
2022-09-15T06:24:28.690Z,2.60
2022-09-15T06:29:41.514Z,4.70
2022-09-15T06:32:13.834Z,6.80
2022-09-15T06:34:46.128Z,6.50
2022-09-15T06:37:17.991Z,6.30
2022-09-15T06:39:49.772Z,8.00
2022-09-15T06:42:22.423Z,6.40
2022-09-15T06:44:54.014Z,7.10
2022-09-15T06:47:25.723Z,5.00
2022-09-15T06:49:57.291Z,4.00
2022-09-15T06:52:28.790Z,2.60
2022-09-15T06:55:00.365Z,2.60
2022-09-15T06:57:31.893Z,2.80
2022-09-15T07:00:05.709Z,2.70
2022-09-15T07:02:37.599Z,3.90
2022-09-15T07:05:10.857Z,6.10
2022-09-15T07:07:42.488Z,2.90
2022-09-15T07:10:14.091Z,2.30
2022-09-15T07:12:46.158Z,3.40
2022-09-15T07:15:17.861Z,6.10
2022-09-15T07:17:49.335Z,6.30
2022-09-15T07:20:20.871Z,5.90
2022-09-15T07:22:52.330Z,6.40
2022-09-15T07:25:23.783Z,6.20
2022-09-15T07:27:55.416Z,7.60
2022-09-15T07:30:26.912Z,6.00
2022-09-15T07:32:58.338Z,8.00
2022-09-15T07:35:29.840Z,5.60
2022-09-15T07:38:02.093Z,4.70
2022-09-15T07:40:34.463Z,6.80
2022-09-15T07:43:06.195Z,6.20
2022-09-15T07:45:38.410Z,4.40
2022-09-15T07:48:10.149Z,5.70
2022-09-15T07:50:41.637Z,6.70
2022-09-15T07:53:13.074Z,5.30
2022-09-15T07:55:44.526Z,4.60
2022-09-15T07:58:15.950Z,4.70
2022-09-15T08:00:47.851Z,5.60
2022-09-15T08:03:19.648Z,4.60
2022-09-15T08:05:51.164Z,5.40
2022-09-15T08:08:22.615Z,6.20
2022-09-15T08:10:54.142Z,8.30
2022-09-15T08:13:25.631Z,6.80
2022-09-15T08:15:57.178Z,6.10
2022-09-15T08:18:28.937Z,5.50
2022-09-15T08:21:00.438Z,4.80
2022-09-15T08:23:31.862Z,5.90
2022-09-15T08:26:03.579Z,6.00
2022-09-15T08:28:35.110Z,6.40
2022-09-15T08:31:08.771Z,6.60
2022-09-15T08:33:45.229Z,5.20
2022-09-15T08:36:17.643Z,7.10
2022-09-15T08:38:49.560Z,8.00
2022-09-15T08:41:25.370Z,6.10
2022-09-15T08:44:02.931Z,6.70
2022-09-15T08:46:40.994Z,5.70
2022-09-15T08:49:30.605Z,6.40
2022-09-15T08:52:12.465Z,8.60
2022-09-15T08:54:44.378Z,6.60
2022-09-15T08:57:20.837Z,8.90
2022-09-15T08:59:54.433Z,7.30
2022-09-15T09:03:04.047Z,8.80
2022-09-15T09:05:47.672Z,9.40
2022-09-15T09:08:46.600Z,11.40
2022-09-15T09:11:26.376Z,10.70
2022-09-15T09:14:08.433Z,7.20
2022-09-15T09:16:59.285Z,7.10
2022-09-15T09:19:52.753Z,8.60
2022-09-15T09:22:28.623Z,7.70
2022-09-15T09:25:11.518Z,9.60
2022-09-15T09:27:54.234Z,8.80
2022-09-15T09:30:28.669Z,7.10
2022-09-15T09:33:13.589Z,6.10
2022-09-15T09:35:48.268Z,9.80
2022-09-15T09:38:22.632Z,7.50
2022-09-15T09:40:57.487Z,8.70
2022-09-15T09:43:32.283Z,8.50
2022-09-15T09:46:03.850Z,8.70
2022-09-15T09:48:37.226Z,7.00
2022-09-15T09:51:32.666Z,6.40
2022-09-15T09:54:21.308Z,4.70
2022-09-15T09:56:54.283Z,5.80
2022-09-15T09:59:36.389Z,8.40
2022-09-15T10:02:17.038Z,5.40
2022-09-15T10:04:50.973Z,7.10
2022-09-15T10:07:25.801Z,3.80
2022-09-15T10:09:59.557Z,5.10
2022-09-15T10:12:34.965Z,4.70
2022-09-15T10:15:20.507Z,4.30
2022-09-15T10:17:52.932Z,5.20
2022-09-15T10:20:32.750Z,4.40
2022-09-15T10:23:28.920Z,6.20
2022-09-15T10:26:22.006Z,5.50
2022-09-15T10:29:14.245Z,6.00
2022-09-15T10:31:46.814Z,3.80
2022-09-15T10:34:32.320Z,8.00
2022-09-15T10:37:15.038Z,6.50
2022-09-15T10:39:54.796Z,6.20
2022-09-15T10:42:38.816Z,5.80
2022-09-15T10:45:23.456Z,5.40
2022-09-15T10:48:11.038Z,6.70
2022-09-15T10:50:54.525Z,8.70
2022-09-15T10:53:44.982Z,5.20
2022-09-15T10:56:26.943Z,5.40
2022-09-15T10:59:20.899Z,5.10
2022-09-15T11:02:04.153Z,5.30
2022-09-15T11:05:00.701Z,6.80
2022-09-15T11:07:42.186Z,5.40
2022-09-15T11:10:23.456Z,5.10
2022-09-15T11:13:04.535Z,7.40
2022-09-15T11:15:54.758Z,9.40
2022-09-15T11:18:51.459Z,8.60
2022-09-15T11:21:30.665Z,5.40
2022-09-15T11:24:21.349Z,5.90
2022-09-15T11:26:58.860Z,5.30
2022-09-15T11:29:35.621Z,7.20
2022-09-15T11:32:17.521Z,5.00
2022-09-15T11:34:57.332Z,5.70
2022-09-15T11:37:36.918Z,5.70
2022-09-15T11:40:18.288Z,6.10
2022-09-15T11:43:00.777Z,7.70
2022-09-15T11:45:41.609Z,8.40
2022-09-15T11:48:19.210Z,7.00
2022-09-15T11:50:55.722Z,7.10
2022-09-15T11:53:35.099Z,9.40
2022-09-15T11:56:16.130Z,8.00
2022-09-15T11:59:02.843Z,8.20
2022-09-15T12:01:42.175Z,10.00
2022-09-15T12:04:19.504Z,9.30
2022-09-15T12:06:57.208Z,8.80
2022-09-15T12:09:29.562Z,9.20
2022-09-15T12:12:08.166Z,8.40
2022-09-15T12:14:44.546Z,7.10
2022-09-15T12:17:26.731Z,8.60
2022-09-15T12:20:04.282Z,7.70
2022-09-15T12:22:42.831Z,9.20
2022-09-15T12:25:20.800Z,7.50
2022-09-15T12:28:23.852Z,7.10
2022-09-15T12:31:18.775Z,8.50
2022-09-15T12:33:56.835Z,8.50
2022-09-15T12:36:38.945Z,8.60
2022-09-15T12:39:37.742Z,9.00
2022-09-15T12:42:20.436Z,12.00
2022-09-15T12:44:59.173Z,10.70
2022-09-15T12:47:35.045Z,12.10
2022-09-15T12:50:26.867Z,11.70
2022-09-15T12:53:02.068Z,12.10
2022-09-15T12:55:37.439Z,12.50
2022-09-15T12:58:18.289Z,12.60
2022-09-15T13:01:14.289Z,11.70
2022-09-15T13:04:29.863Z,11.40
2022-09-15T13:07:39.262Z,12.10
2022-09-15T13:10:36.603Z,13.20
2022-09-15T13:13:21.598Z,12.80
2022-09-15T13:15:56.317Z,12.00
2022-09-15T13:18:33.342Z,11.20
2022-09-15T13:21:11.113Z,10.60
2022-09-15T13:23:48.041Z,10.90
2022-09-15T13:26:24.022Z,9.80
2022-09-15T13:28:56.559Z,12.80
2022-09-15T13:31:39.918Z,10.40
2022-09-15T13:38:12.174Z,11.60
2022-09-15T13:41:24.453Z,17.50
2022-09-15T13:44:32.263Z,11.70
2022-09-15T13:47:16.128Z,10.30
2022-09-15T13:49:52.385Z,14.70
2022-09-15T13:53:05.729Z,12.60
2022-09-15T13:55:39.392Z,10.40
2022-09-15T14:01:08.618Z,12.90
2022-09-15T14:03:44.539Z,10.10
2022-09-15T14:06:18.883Z,12.00
2022-09-15T14:08:57.074Z,11.50
2022-09-15T14:11:32.283Z,10.90
2022-09-15T14:14:07.256Z,11.90
2022-09-15T14:16:39.781Z,13.90
2022-09-15T14:19:33.521Z,9.30
2022-09-15T14:22:26.059Z,10.50
2022-09-15T14:24:59.276Z,10.90
2022-09-15T14:27:33.916Z,14.60
2022-09-15T14:30:12.089Z,9.10
2022-09-15T14:32:52.137Z,11.80
2022-09-15T14:35:26.980Z,11.30
2022-09-15T14:38:00.379Z,10.60
2022-09-15T14:40:36.727Z,8.90
2022-09-15T14:43:26.905Z,9.40
2022-09-15T14:46:10.166Z,9.50
2022-09-15T14:48:41.637Z,11.40
2022-09-15T14:51:20.544Z,9.40
2022-09-15T14:53:56.074Z,11.00
2022-09-15T14:56:31.440Z,9.80
2022-09-15T14:59:08.417Z,13.50
2022-09-15T15:01:58.749Z,9.90
2022-09-15T15:04:36.685Z,10.60
2022-09-15T15:07:17.011Z,10.00
2022-09-15T15:09:51.481Z,10.80
2022-09-15T15:12:27.966Z,13.70
2022-09-15T15:15:00.796Z,11.70
2022-09-15T15:17:41.911Z,12.20
2022-09-15T15:20:23.045Z,13.60
2022-09-15T15:23:15.366Z,12.60
2022-09-15T15:25:47.827Z,14.30
2022-09-15T15:28:33.861Z,12.40
2022-09-15T15:31:13.975Z,14.40
2022-09-15T15:33:50.927Z,17.90
2022-09-15T15:36:24.984Z,15.90
2022-09-15T15:39:09.428Z,13.20
2022-09-15T15:41:43.082Z,14.40
2022-09-15T15:44:29.003Z,13.70
2022-09-15T15:47:03.337Z,15.60
2022-09-15T15:49:36.788Z,16.30
2022-09-15T15:52:10.752Z,12.60
2022-09-15T15:54:43.207Z,15.10
2022-09-15T15:57:28.163Z,17.50
2022-09-15T16:00:00.939Z,16.50
2022-09-15T16:02:33.142Z,13.10
2022-09-15T16:05:05.184Z,12.60
2022-09-15T16:07:37.073Z,16.50
2022-09-15T16:10:16.233Z,17.20
2022-09-15T16:12:48.164Z,18.00
2022-09-15T16:15:22.266Z,13.60
2022-09-15T16:17:54.001Z,12.90
2022-09-15T16:20:25.759Z,12.40
2022-09-15T16:22:57.690Z,16.30
2022-09-15T16:25:39.446Z,12.50
2022-09-15T16:28:12.203Z,12.70
2022-09-15T16:30:44.390Z,14.50
2022-09-15T16:33:18.004Z,12.10
2022-09-15T16:35:55.565Z,11.70
2022-09-15T16:38:28.876Z,12.40
2022-09-15T16:41:01.128Z,8.20
2022-09-15T16:43:33.482Z,13.20
2022-09-15T16:46:06.320Z,15.10
2022-09-15T16:48:37.956Z,12.90
2022-09-15T16:51:31.763Z,13.00
2022-09-15T16:54:03.952Z,12.90
2022-09-15T16:56:35.502Z,11.80
2022-09-15T16:59:07.430Z,10.10
2022-09-15T17:01:39.792Z,13.90
2022-09-15T17:04:16.444Z,12.40
2022-09-15T17:06:48.177Z,11.10
2022-09-15T17:09:20.566Z,10.10
2022-09-15T17:11:52.028Z,9.40
2022-09-15T17:14:23.657Z,13.60
2022-09-15T17:16:55.568Z,12.40
2022-09-15T17:19:27.147Z,11.10
2022-09-15T17:21:59.026Z,11.60
2022-09-15T17:24:30.698Z,12.60
2022-09-15T17:27:02.245Z,11.70
2022-09-15T17:29:33.714Z,14.90
2022-09-15T17:32:06.062Z,12.00
2022-09-15T17:34:39.192Z,11.60
2022-09-15T17:37:11.166Z,10.60
2022-09-15T17:39:43.285Z,14.10
2022-09-15T17:42:15.469Z,11.40
2022-09-15T17:44:46.973Z,12.30
2022-09-15T17:47:20.618Z,14.80
2022-09-15T17:49:54.147Z,15.30
2022-09-15T17:52:26.185Z,11.80
2022-09-15T17:54:58.469Z,12.40
2022-09-15T17:57:30.522Z,14.50
2022-09-15T18:00:02.338Z,12.70
2022-09-15T18:02:36.749Z,14.30
2022-09-15T18:05:17.642Z,14.10
2022-09-15T18:07:49.888Z,13.40
2022-09-15T18:10:22.518Z,13.30
2022-09-15T18:12:55.848Z,15.60
2022-09-15T18:15:31.602Z,15.80
2022-09-15T18:18:08.693Z,11.70
2022-09-15T18:20:41.628Z,15.20
2022-09-15T18:23:16.765Z,16.90
2022-09-15T18:25:49.262Z,15.10
2022-09-15T18:28:21.606Z,12.80
2022-09-15T18:30:56.688Z,13.70
2022-09-15T18:33:29.377Z,13.80
2022-09-15T18:36:01.538Z,12.80
2022-09-15T18:38:33.617Z,12.80
2022-09-15T18:41:10.135Z,14.80
2022-09-15T18:43:41.730Z,14.80
2022-09-15T18:46:13.280Z,18.20
2022-09-15T18:48:44.878Z,16.50
2022-09-15T18:51:24.090Z,15.60
2022-09-15T18:54:01.404Z,14.70
2022-09-15T18:56:33.068Z,16.20
2022-09-15T18:59:04.788Z,15.00
2022-09-15T19:01:37.008Z,13.10
2022-09-15T19:05:26.023Z,12.90
2022-09-15T19:08:19.552Z,12.90
2022-09-15T19:10:58.835Z,18.50
2022-09-15T19:13:31.573Z,15.20
2022-09-15T19:16:07.375Z,17.10
2022-09-15T19:18:39.899Z,23.40
2022-09-15T19:21:15.409Z,13.40
2022-09-15T19:23:47.671Z,15.20
2022-09-15T19:26:19.970Z,12.30
2022-09-15T19:28:54.590Z,15.30
2022-09-15T19:31:27.680Z,12.50
2022-09-15T19:33:59.691Z,17.50
2022-09-15T19:36:32.291Z,13.10
2022-09-15T19:39:04.332Z,14.50
2022-09-15T19:41:36.430Z,14.20
2022-09-15T19:44:10.668Z,13.30
2022-09-15T19:46:43.366Z,18.80
2022-09-15T19:49:16.443Z,13.90
2022-09-15T19:51:52.980Z,14.60
2022-09-15T19:54:26.210Z,16.30
2022-09-15T19:56:58.528Z,18.90
2022-09-15T19:59:31.883Z,14.90
2022-09-15T20:02:03.790Z,15.20
2022-09-15T20:04:40.874Z,19.60
2022-09-15T20:07:12.966Z,17.50
2022-09-15T20:09:45.263Z,22.90
2022-09-15T20:12:17.602Z,18.00
2022-09-15T20:14:49.419Z,17.50
2022-09-15T20:17:21.660Z,14.80
2022-09-15T20:19:53.758Z,14.80
2022-09-15T20:22:25.885Z,16.90
2022-09-15T20:24:57.768Z,21.90
2022-09-15T20:27:30.427Z,15.80
2022-09-15T20:30:02.742Z,15.50
2022-09-15T20:32:34.597Z,22.90
2022-09-15T20:35:08.873Z,15.70
2022-09-15T20:37:40.891Z,15.20
2022-09-15T20:40:14.606Z,16.10
2022-09-15T20:42:47.634Z,16.00
2022-09-15T20:45:19.433Z,19.50
2022-09-15T20:47:51.138Z,15.90
2022-09-15T20:50:22.858Z,16.80
2022-09-15T20:52:54.589Z,16.80
2022-09-15T20:55:26.466Z,18.90
2022-09-15T20:57:58.186Z,16.60
2022-09-15T21:00:33.751Z,22.90
2022-09-15T21:03:05.913Z,14.60
2022-09-15T21:05:37.605Z,17.70
2022-09-15T21:08:10.857Z,17.40
2022-09-15T21:10:46.884Z,13.50
2022-09-15T21:13:19.133Z,15.70
2022-09-15T21:15:57.903Z,17.90
2022-09-15T21:18:32.598Z,18.20
2022-09-15T21:21:07.308Z,18.50
2022-09-15T21:23:41.333Z,17.30
2022-09-15T21:26:15.021Z,18.10
2022-09-15T21:28:47.238Z,17.70
2022-09-15T21:31:21.205Z,18.70
2022-09-15T21:33:54.840Z,20.30
2022-09-15T21:36:29.541Z,19.30
2022-09-15T21:39:02.862Z,18.20
2022-09-15T21:41:34.697Z,20.00
2022-09-15T21:44:06.822Z,17.90
2022-09-15T21:46:38.597Z,17.20
2022-09-15T21:49:10.738Z,20.40
2022-09-15T21:51:43.019Z,26.40
2022-09-15T21:54:17.965Z,17.20
2022-09-15T21:56:53.887Z,20.10
2022-09-15T21:59:25.823Z,18.20
2022-09-15T22:01:57.743Z,20.20
2022-09-15T22:04:29.502Z,16.50
2022-09-15T22:07:04.375Z,20.80
2022-09-15T22:09:36.103Z,16.30
2022-09-15T22:12:10.461Z,20.20
2022-09-15T22:14:42.143Z,17.10
2022-09-15T22:17:18.626Z,16.40
2022-09-15T22:19:51.146Z,19.90
2022-09-15T22:22:23.549Z,17.20
2022-09-15T22:24:55.447Z,16.60
2022-09-15T22:27:27.204Z,22.60
2022-09-15T22:29:59.058Z,16.70
2022-09-15T22:32:31.346Z,13.40
2022-09-15T22:35:03.149Z,15.60
2022-09-15T22:37:36.162Z,16.30
2022-09-15T22:40:09.638Z,18.30
2022-09-15T22:42:41.464Z,15.90
2022-09-15T22:45:13.672Z,14.20
2022-09-15T22:47:45.385Z,18.20
2022-09-15T22:50:17.692Z,15.20
2022-09-15T22:52:50.856Z,14.20
2022-09-15T22:55:22.929Z,15.50
2022-09-15T22:57:54.688Z,14.80
2022-09-15T23:00:27.176Z,14.80
2022-09-15T23:02:58.859Z,17.10
2022-09-15T23:05:30.336Z,15.90
2022-09-15T23:10:33.269Z,14.60
2022-09-15T23:13:04.734Z,15.30
2022-09-15T23:18:08.155Z,12.30
2022-09-15T23:20:40.353Z,14.00
2022-09-15T23:23:11.839Z,15.60
2022-09-15T23:28:13.235Z,12.90
2022-09-15T23:33:14.661Z,15.10
2022-09-15T23:38:16.660Z,18.10
2022-09-15T23:40:49.678Z,19.00
2022-09-15T23:43:21.139Z,16.30
2022-09-15T23:48:23.442Z,15.90
2022-09-15T23:50:55.159Z,14.50
2022-09-15T23:53:26.663Z,12.90
2022-09-15T23:55:58.231Z,15.40
2022-09-15T23:58:29.692Z,11.30
